Time;durP1;ratioP1;P1;durP2;ratioP2;P2;SDS_P1;SDS_P2;PMS_P1;PMS_P2;Temp;Humidity;BMP_temperature;BMP_pressure;BME280_temperature;BME280_humidity;BME280_pressure;Samples;Min_cycle;Max_cycle;Signal;HPM_P1;HPM_P2
2023/12/13 00:01:47;;;;;;;13.07;12.38;;;;;;;;;;5070976;28;20024;-63
2023/12/13 00:04:12;;;;;;;12.20;11.60;;;;;;;;;;5076744;28;20078;-60
2023/12/13 00:06:38;;;;;;;12.05;11.45;;;;;;;;;;5074690;28;20055;-61
2023/12/13 00:09:04;;;;;;;12.63;11.95;;;;;;;;;;5070486;28;20074;-61
2023/12/13 00:11:29;;;;;;;11.95;11.35;;;;;;;;;;5076951;28;20383;-60
2023/12/13 00:13:54;;;;;;;12.77;12.07;;;;;;;;;;5073072;28;20078;-61
2023/12/13 00:16:21;;;;;;;11.85;11.25;;;;;;;;;;5069238;28;20143;-63
2023/12/13 00:18:47;;;;;;;11.98;11.38;;;;;;;;;;5077336;28;20353;-62
2023/12/13 00:21:13;;;;;;;12.23;11.63;;;;;;;;;;5078934;28;20051;-62
2023/12/13 00:23:38;;;;;;;12.77;12.07;;;;;;;;;;5076958;28;20032;-61
2023/12/13 00:26:05;;;;;;;12.50;11.80;;;;;;;;;;5075555;28;20046;-62
2023/12/13 00:28:30;;;;;;;15.23;14.25;;;;;;;;;;5071249;28;20103;-60
2023/12/13 00:30:55;;;;;;;12.05;11.45;;;;;;;;;;5069835;28;20052;-61
2023/12/13 00:33:21;;;;;;;12.43;11.73;;;;;;;;;;5073853;28;20031;-61
2023/12/13 00:35:46;;;;;;;12.52;11.90;;;;;;;;;;5070854;28;20032;-61
2023/12/13 00:38:12;;;;;;;12.10;11.50;;;;;;;;;;5071297;28;20039;-62
2023/12/13 00:40:37;;;;;;;13.32;12.60;;;;;;;;;;5072586;28;20485;-63
2023/12/13 00:43:02;;;;;;;13.00;12.30;;;;;;;;;;5071408;28;20025;-62
2023/12/13 00:45:28;;;;;;;12.38;11.68;;;;;;;;;;5078420;28;20442;-62
2023/12/13 00:47:53;;;;;;;13.13;12.43;;;;;;;;;;5069930;28;20031;-61
2023/12/13 00:50:18;;;;;;;13.18;12.48;;;;;;;;;;5078783;28;20561;-60
2023/12/13 00:52:44;;;;;;;12.85;12.15;;;;;;;;;;5071655;28;20039;-61
2023/12/13 00:55:09;;;;;;;12.20;11.60;;;;;;;;;;5075546;28;20040;-61
2023/12/13 00:57:34;;;;;;;12.80;12.10;;;;;;;;;;5070195;28;20031;-62
2023/12/13 01:00:00;;;;;;;12.93;12.23;;;;;;;;;;5071344;28;20165;-62
2023/12/13 01:02:27;;;;;;;12.40;11.80;;;;;;;;;;5081614;28;20020;-62
2023/12/13 01:04:52;;;;;;;12.68;12.07;;;;;;;;;;5069477;28;20132;-61
2023/12/13 01:07:17;;;;;;;13.20;12.50;;;;;;;;;;5072931;28;20705;-62
2023/12/13 01:09:42;;;;;;;12.82;12.13;;;;;;;;;;5074604;28;20073;-62
2023/12/13 01:12:09;;;;;;;12.18;11.57;;;;;;;;;;5066395;28;20024;-62
2023/12/13 01:14:35;;;;;;;12.85;12.15;;;;;;;;;;5070956;28;20027;-60
2023/12/13 01:17:00;;;;;;;13.50;12.77;;;;;;;;;;5068927;28;20044;-61
2023/12/13 01:19:25;;;;;;;13.00;12.30;;;;;;;;;;5073672;28;20044;-61
2023/12/13 01:21:51;;;;;;;12.32;11.70;;;;;;;;;;5068965;28;20059;-61
2023/12/13 01:24:16;;;;;;;12.38;11.75;;;;;;;;;;5070936;28;20050;-61
2023/12/13 01:26:42;;;;;;;12.85;12.18;;;;;;;;;;5074089;28;20052;-60
2023/12/13 01:29:07;;;;;;;13.25;12.55;;;;;;;;;;5073520;28;20446;-61
2023/12/13 01:31:34;;;;;;;12.82;12.18;;;;;;;;;;5076097;28;20016;-61
2023/12/13 01:34:04;;;;;;;13.43;12.63;;;;;;;;;;5070671;28;20016;-61
2023/12/13 01:36:29;;;;;;;13.45;12.75;;;;;;;;;;5073690;28;20027;-61
2023/12/13 01:38:54;;;;;;;13.73;12.93;;;;;;;;;;5065485;28;20446;-62
2023/12/13 01:41:20;;;;;;;13.57;12.88;;;;;;;;;;5068773;28;20040;-61
2023/12/13 01:43:45;;;;;;;14.05;13.25;;;;;;;;;;5070622;28;20092;-60
2023/12/13 01:46:12;;;;;;;13.77;13.00;;;;;;;;;;5070304;28;20028;-61
2023/12/13 01:48:37;;;;;;;13.57;12.88;;;;;;;;;;5072761;28;20107;-60
2023/12/13 01:51:03;;;;;;;12.63;12.02;;;;;;;;;;5068660;28;20166;-62
2023/12/13 01:53:29;;;;;;;12.68;12.02;;;;;;;;;;5076348;28;20024;-61
2023/12/13 01:55:55;;;;;;;12.73;12.13;;;;;;;;;;5071317;28;20028;-61
2023/12/13 01:58:20;;;;;;;12.73;12.10;;;;;;;;;;5069739;28;20517;-62
2023/12/13 02:00:46;;;;;;;12.45;11.85;;;;;;;;;;5069991;28;20396;-62
2023/12/13 02:03:12;;;;;;;14.10;13.30;;;;;;;;;;5072595;28;20032;-60
2023/12/13 02:05:38;;;;;;;13.52;12.82;;;;;;;;;;5071338;28;20100;-61
2023/12/13 02:08:04;;;;;;;12.60;12.00;;;;;;;;;;5071462;28;20107;-61
2023/12/13 02:10:29;;;;;;;13.32;12.63;;;;;;;;;;5075487;28;20020;-61
2023/12/13 02:12:54;;;;;;;12.65;12.05;;;;;;;;;;5072482;28;20067;-62
2023/12/13 02:15:21;;;;;;;12.80;12.20;;;;;;;;;;5069829;28;20054;-62
2023/12/13 02:17:50;;;;;;;13.38;12.68;;;;;;;;;;5070343;28;20036;-63
2023/12/13 02:20:15;;;;;;;13.90;13.20;;;;;;;;;;5069592;28;20020;-61
2023/12/13 02:22:40;;;;;;;12.95;12.35;;;;;;;;;;5070058;28;20020;-58
2023/12/13 02:25:11;;;;;;;13.32;12.63;;;;;;;;;;5075691;28;20020;-60
2023/12/13 02:27:36;;;;;;;16.08;15.07;;;;;;;;;;5071850;28;20024;-61
2023/12/13 02:30:02;;;;;;;13.60;12.90;;;;;;;;;;5075371;28;20459;-62
2023/12/13 02:32:27;;;;;;;13.70;13.00;;;;;;;;;;5069960;28;20029;-61
2023/12/13 02:34:54;;;;;;;13.38;12.68;;;;;;;;;;5076666;28;20043;-61
2023/12/13 02:37:19;;;;;;;12.73;12.13;;;;;;;;;;5073520;28;20032;-60
2023/12/13 02:39:44;;;;;;;13.57;12.88;;;;;;;;;;5069879;28;20020;-61
2023/12/13 02:42:10;;;;;;;13.30;12.60;;;;;;;;;;5073500;28;20019;-61
2023/12/13 02:44:35;;;;;;;13.45;12.75;;;;;;;;;;5077722;28;20102;-61
2023/12/13 02:47:01;;;;;;;13.93;13.13;;;;;;;;;;5076598;28;20095;-61
2023/12/13 02:49:26;;;;;;;14.05;13.25;;;;;;;;;;5070753;28;20468;-61
2023/12/13 02:51:51;;;;;;;13.45;12.75;;;;;;;;;;5073215;28;20024;-62
2023/12/13 02:54:17;;;;;;;12.30;11.70;;;;;;;;;;5074040;28;20066;-60
2023/12/13 02:56:42;;;;;;;13.88;13.07;;;;;;;;;;5078930;28;20021;-61
2023/12/13 02:59:07;;;;;;;13.02;12.40;;;;;;;;;;5081028;28;20405;-61
2023/12/13 03:01:33;;;;;;;13.60;12.90;;;;;;;;;;5075793;28;20097;-61
2023/12/13 03:03:58;;;;;;;13.10;12.40;;;;;;;;;;5076902;28;20032;-60
2023/12/13 03:06:23;;;;;;;12.95;12.25;;;;;;;;;;5073830;28;20035;-61
2023/12/13 03:08:49;;;;;;;13.15;12.45;;;;;;;;;;5078432;28;20016;-63
2023/12/13 03:11:14;;;;;;;13.52;12.82;;;;;;;;;;5079077;28;20044;-62
2023/12/13 03:13:39;;;;;;;13.93;13.13;;;;;;;;;;5074085;28;20446;-61
2023/12/13 03:16:05;;;;;;;13.02;12.32;;;;;;;;;;5073586;28;20047;-61
2023/12/13 03:18:31;;;;;;;12.75;12.10;;;;;;;;;;5069838;28;20025;-61
2023/12/13 03:20:56;;;;;;;13.00;12.30;;;;;;;;;;5077488;28;20023;-62
2023/12/13 03:23:22;;;;;;;12.82;12.18;;;;;;;;;;5074892;28;20472;-62
2023/12/13 03:25:47;;;;;;;12.77;12.18;;;;;;;;;;5073909;28;20017;-62
2023/12/13 03:28:12;;;;;;;13.52;12.82;;;;;;;;;;5073911;28;20051;-62
2023/12/13 03:30:37;;;;;;;13.18;12.48;;;;;;;;;;5073625;28;20099;-61
2023/12/13 03:33:03;;;;;;;14.30;13.50;;;;;;;;;;5075592;28;20024;-61
2023/12/13 03:35:28;;;;;;;13.18;12.48;;;;;;;;;;5077191;28;20035;-60
2023/12/13 03:37:54;;;;;;;13.55;12.85;;;;;;;;;;5075509;28;20119;-61
2023/12/13 03:40:19;;;;;;;13.32;12.63;;;;;;;;;;5079766;28;20097;-62
2023/12/13 03:42:44;;;;;;;13.05;12.35;;;;;;;;;;5080446;28;20020;-61
2023/12/13 03:45:10;;;;;;;12.75;12.05;;;;;;;;;;5081460;28;20534;-59
2023/12/13 03:47:35;;;;;;;14.75;13.88;;;;;;;;;;5074588;28;20104;-63
2023/12/13 03:50:00;;;;;;;13.50;12.80;;;;;;;;;;5079908;28;20099;-60
2023/12/13 03:52:26;;;;;;;12.80;12.20;;;;;;;;;;5077446;28;20038;-61
2023/12/13 03:54:51;;;;;;;13.20;12.50;;;;;;;;;;5072862;28;20078;-62
2023/12/13 03:57:16;;;;;;;13.25;12.55;;;;;;;;;;5071839;28;20056;-60
2023/12/13 03:59:42;;;;;;;13.23;12.52;;;;;;;;;;5072176;28;20017;-61
2023/12/13 04:02:07;;;;;;;13.90;13.10;;;;;;;;;;5074870;28;20028;-61
2023/12/13 04:04:32;;;;;;;13.68;12.88;;;;;;;;;;5080109;28;20075;-62
2023/12/13 04:06:59;;;;;;;13.35;12.65;;;;;;;;;;5063838;28;20017;-62
2023/12/13 04:09:24;;;;;;;13.15;12.45;;;;;;;;;;5065335;28;20017;-62
2023/12/13 04:11:50;;;;;;;13.90;13.10;;;;;;;;;;5069787;28;20112;-62
2023/12/13 04:14:15;;;;;;;13.85;13.15;;;;;;;;;;5072226;28;20021;-62
2023/12/13 04:16:40;;;;;;;13.10;12.40;;;;;;;;;;5078222;28;20059;-61
2023/12/13 04:19:06;;;;;;;14.07;13.27;;;;;;;;;;5069237;28;20024;-62
2023/12/13 04:21:31;;;;;;;13.50;12.75;;;;;;;;;;5076556;28;20050;-62
2023/12/13 04:23:56;;;;;;;12.45;11.85;;;;;;;;;;5073864;28;20048;-61
2023/12/13 04:26:22;;;;;;;13.52;12.82;;;;;;;;;;5072958;28;20028;-61
2023/12/13 04:28:47;;;;;;;14.10;13.30;;;;;;;;;;5072698;28;20016;-62
2023/12/13 04:31:12;;;;;;;13.30;12.60;;;;;;;;;;5071846;28;20024;-61
2023/12/13 04:33:38;;;;;;;13.57;12.88;;;;;;;;;;5069699;28;20035;-62
2023/12/13 04:36:03;;;;;;;12.82;12.18;;;;;;;;;;5073597;28;20032;-62
2023/12/13 04:38:29;;;;;;;13.15;12.45;;;;;;;;;;5068861;28;20452;-63
2023/12/13 04:40:54;;;;;;;14.15;13.35;;;;;;;;;;5077947;28;20040;-61
2023/12/13 04:43:19;;;;;;;13.52;12.82;;;;;;;;;;5079588;28;20032;-63
2023/12/13 04:45:45;;;;;;;13.23;12.52;;;;;;;;;;5076275;28;20024;-62
2023/12/13 04:48:10;;;;;;;14.48;13.68;;;;;;;;;;5070715;28;20031;-61
2023/12/13 04:50:35;;;;;;;12.85;12.23;;;;;;;;;;5076254;28;20403;-61
2023/12/13 04:53:02;;;;;;;13.57;12.88;;;;;;;;;;5071103;28;20013;-62
2023/12/13 04:55:27;;;;;;;13.70;12.95;;;;;;;;;;5077255;28;20025;-61
2023/12/13 04:57:53;;;;;;;13.18;12.48;;;;;;;;;;5072200;28;20024;-61
2023/12/13 05:00:18;;;;;;;13.50;12.80;;;;;;;;;;5071891;28;20021;-61
2023/12/13 05:02:45;;;;;;;13.25;12.55;;;;;;;;;;5070833;28;20051;-62
2023/12/13 05:05:10;;;;;;;14.02;13.25;;;;;;;;;;5069472;28;20027;-62
2023/12/13 05:07:35;;;;;;;12.98;12.32;;;;;;;;;;5076011;28;20024;-62
2023/12/13 05:10:00;;;;;;;13.88;13.07;;;;;;;;;;5070319;28;20013;-62
2023/12/13 05:12:26;;;;;;;13.50;12.80;;;;;;;;;;5074544;28;20047;-62
2023/12/13 05:14:51;;;;;;;13.60;12.90;;;;;;;;;;5075321;28;20032;-62
2023/12/13 05:17:16;;;;;;;13.07;12.43;;;;;;;;;;5069540;28;20503;-61
2023/12/13 05:19:42;;;;;;;16.65;15.52;;;;;;;;;;5069341;28;20020;-62
2023/12/13 05:22:07;;;;;;;14.07;13.27;;;;;;;;;;5066677;28;20025;-63
2023/12/13 05:24:32;;;;;;;13.60;12.90;;;;;;;;;;5068299;28;20131;-63
2023/12/13 05:26:58;;;;;;;13.70;12.90;;;;;;;;;;5067756;28;20025;-61
2023/12/13 05:29:23;;;;;;;15.18;14.27;;;;;;;;;;5072687;28;20027;-62
2023/12/13 05:31:48;;;;;;;14.15;13.30;;;;;;;;;;5069903;28;20074;-62
2023/12/13 05:34:14;;;;;;;13.77;13.02;;;;;;;;;;5071223;28;20040;-62
2023/12/13 05:36:39;;;;;;;14.68;13.77;;;;;;;;;;5074648;28;20068;-62
2023/12/13 05:39:04;;;;;;;13.23;12.52;;;;;;;;;;5067764;28;20455;-64
2023/12/13 05:41:30;;;;;;;13.82;13.02;;;;;;;;;;5070455;28;20070;-65
2023/12/13 05:43:55;;;;;;;13.88;13.07;;;;;;;;;;5068902;28;20020;-64
2023/12/13 05:46:21;;;;;;;13.98;13.18;;;;;;;;;;5072039;28;20033;-64
2023/12/13 05:48:47;;;;;;;14.70;13.80;;;;;;;;;;5066887;28;20508;-64
2023/12/13 05:51:12;;;;;;;13.05;12.35;;;;;;;;;;5067093;28;20091;-63
2023/12/13 05:53:37;;;;;;;13.70;12.90;;;;;;;;;;5070022;28;20044;-67
2023/12/13 05:56:03;;;;;;;14.73;13.82;;;;;;;;;;5068392;28;20032;-63
2023/12/13 05:58:29;;;;;;;14.13;13.32;;;;;;;;;;5073037;28;20024;-63
2023/12/13 06:00:55;;;;;;;14.60;13.70;;;;;;;;;;5075852;28;20405;-64
2023/12/13 06:03:21;;;;;;;13.80;13.07;;;;;;;;;;5075931;28;20024;-62
2023/12/13 06:05:46;;;;;;;13.18;12.48;;;;;;;;;;5067749;28;20029;-63
2023/12/13 06:08:12;;;;;;;13.98;13.23;;;;;;;;;;5070390;28;20028;-63
2023/12/13 06:10:38;;;;;;;15.95;14.90;;;;;;;;;;5070336;28;20025;-63
2023/12/13 06:13:03;;;;;;;14.32;13.50;;;;;;;;;;5075234;28;20024;-60
2023/12/13 06:15:29;;;;;;;14.40;13.60;;;;;;;;;;5069428;28;20072;-61
2023/12/13 06:17:54;;;;;;;14.82;13.93;;;;;;;;;;5070105;28;20028;-61
2023/12/13 06:20:19;;;;;;;13.68;12.90;;;;;;;;;;5070215;28;20028;-62
2023/12/13 06:22:45;;;;;;;13.05;12.35;;;;;;;;;;5070215;28;20575;-63
2023/12/13 06:25:10;;;;;;;13.20;12.50;;;;;;;;;;5071437;28;20039;-62
2023/12/13 06:27:35;;;;;;;12.85;12.18;;;;;;;;;;5073112;28;20051;-62
2023/12/13 06:30:01;;;;;;;14.13;13.32;;;;;;;;;;5072687;28;20081;-61
2023/12/13 06:32:26;;;;;;;13.52;12.82;;;;;;;;;;5072842;28;20028;-61
2023/12/13 06:34:52;;;;;;;13.15;12.45;;;;;;;;;;5074493;28;20016;-63
2023/12/13 06:37:17;;;;;;;13.52;12.82;;;;;;;;;;5075247;28;20024;-63
2023/12/13 06:39:43;;;;;;;14.32;13.52;;;;;;;;;;5073446;28;20024;-61
2023/12/13 06:42:08;;;;;;;13.98;13.18;;;;;;;;;;5072106;28;20035;-61
2023/12/13 06:44:34;;;;;;;13.40;12.70;;;;;;;;;;5074226;28;20036;-61
2023/12/13 06:47:00;;;;;;;14.65;13.77;;;;;;;;;;5068251;28;20099;-61
2023/12/13 06:49:30;;;;;;;13.98;13.18;;;;;;;;;;5068604;28;20115;-63
2023/12/13 06:51:56;;;;;;;14.23;13.43;;;;;;;;;;5067925;28;20027;-63
2023/12/13 06:54:21;;;;;;;13.48;12.77;;;;;;;;;;5071514;28;20024;-61
2023/12/13 06:56:46;;;;;;;13.20;12.50;;;;;;;;;;5069965;28;20749;-61
2023/12/13 06:59:11;;;;;;;13.10;12.40;;;;;;;;;;5076235;28;20078;-61
2023/12/13 07:01:37;;;;;;;13.60;12.90;;;;;;;;;;5067810;28;20025;-63
2023/12/13 07:04:02;;;;;;;14.75;13.85;;;;;;;;;;5070092;28;20028;-61
2023/12/13 07:06:28;;;;;;;13.30;12.60;;;;;;;;;;5069346;28;20784;-63
2023/12/13 07:08:54;;;;;;;13.32;12.63;;;;;;;;;;5073919;28;20024;-63
2023/12/13 07:11:19;;;;;;;13.13;12.43;;;;;;;;;;5077817;28;20503;-65
2023/12/13 07:13:46;;;;;;;14.80;13.90;;;;;;;;;;5054060;28;20025;-62
2023/12/13 07:16:11;;;;;;;15.38;14.43;;;;;;;;;;5060988;28;20642;-67
2023/12/13 07:18:37;;;;;;;15.25;14.27;;;;;;;;;;5062997;28;20080;-66
2023/12/13 07:21:03;;;;;;;14.95;14.05;;;;;;;;;;5063677;28;20107;-65
2023/12/13 07:23:31;;;;;;;15.02;14.13;;;;;;;;;;5064542;28;20573;-67
2023/12/13 07:25:57;;;;;;;15.77;14.77;;;;;;;;;;5063070;28;20058;-66
2023/12/13 07:28:22;;;;;;;15.68;14.68;;;;;;;;;;5056379;28;20558;-63
2023/12/13 07:30:47;;;;;;;15.52;14.52;;;;;;;;;;5059523;28;20487;-63
2023/12/13 07:33:13;;;;;;;14.13;13.32;;;;;;;;;;5065927;28;20029;-63
2023/12/13 07:35:39;;;;;;;15.57;14.57;;;;;;;;;;5063441;28;20024;-63
2023/12/13 07:38:04;;;;;;;15.30;14.35;;;;;;;;;;5064429;28;20043;-64
2023/12/13 07:40:30;;;;;;;15.02;14.13;;;;;;;;;;5062137;28;20044;-62
2023/12/13 07:42:56;;;;;;;15.88;14.88;;;;;;;;;;5063023;28;20063;-63
2023/12/13 07:45:22;;;;;;;15.55;14.55;;;;;;;;;;5061306;28;20369;-64
2023/12/13 07:47:49;;;;;;;13.60;12.80;;;;;;;;;;5063869;28;20025;-62
2023/12/13 07:50:15;;;;;;;16.30;15.20;;;;;;;;;;5061798;28;20021;-64
2023/12/13 07:52:40;;;;;;;14.15;13.35;;;;;;;;;;5060157;28;20025;-64
2023/12/13 07:55:06;;;;;;;15.65;14.65;;;;;;;;;;5064283;28;20079;-63
2023/12/13 07:57:31;;;;;;;14.40;13.57;;;;;;;;;;5064182;28;20036;-65
2023/12/13 07:59:56;;;;;;;15.45;14.50;;;;;;;;;;5059489;28;20032;-64
2023/12/13 08:02:23;;;;;;;13.43;12.73;;;;;;;;;;5059500;28;20025;-62
2023/12/13 08:04:49;;;;;;;14.65;13.75;;;;;;;;;;5063634;28;20119;-66
2023/12/13 08:07:14;;;;;;;15.82;14.82;;;;;;;;;;5053814;28;20104;-65
2023/12/13 08:09:39;;;;;;;14.85;13.95;;;;;;;;;;5058987;28;20024;-65
2023/12/13 08:12:05;;;;;;;14.63;13.73;;;;;;;;;;5056947;28;20032;-64
2023/12/13 08:14:32;;;;;;;14.50;13.68;;;;;;;;;;5063273;28;20058;-65
2023/12/13 08:16:58;;;;;;;13.48;12.77;;;;;;;;;;5060902;28;20158;-64
2023/12/13 08:19:23;;;;;;;13.38;12.68;;;;;;;;;;5063264;28;20032;-66
2023/12/13 08:21:48;;;;;;;14.38;13.57;;;;;;;;;;5063409;28;20039;-66
2023/12/13 08:24:14;;;;;;;14.73;13.82;;;;;;;;;;5052364;28;20035;-66
2023/12/13 08:26:39;;;;;;;13.38;12.68;;;;;;;;;;5058980;28;20044;-64
2023/12/13 08:29:04;;;;;;;16.25;15.20;;;;;;;;;;5056859;28;20025;-66
2023/12/13 08:31:30;;;;;;;15.13;14.23;;;;;;;;;;5060236;28;20021;-66
2023/12/13 08:33:56;;;;;;;14.65;13.75;;;;;;;;;;5057502;28;20279;-66
2023/12/13 08:36:23;;;;;;;14.30;13.50;;;;;;;;;;5058790;28;20052;-66
2023/12/13 08:38:48;;;;;;;15.20;14.25;;;;;;;;;;5057234;28;20020;-66
2023/12/13 08:41:14;;;;;;;14.43;13.55;;;;;;;;;;5056922;28;20037;-65
2023/12/13 08:43:40;;;;;;;14.20;13.40;;;;;;;;;;5061262;28;20027;-66
2023/12/13 08:46:06;;;;;;;15.10;14.20;;;;;;;;;;5060047;28;20029;-65
2023/12/13 08:48:31;;;;;;;14.88;13.98;;;;;;;;;;5060363;28;20035;-64
2023/12/13 08:50:57;;;;;;;16.20;15.18;;;;;;;;;;5056932;28;20796;-66
2023/12/13 08:53:22;;;;;;;15.65;14.65;;;;;;;;;;5056344;28;20570;-65
2023/12/13 08:55:47;;;;;;;14.95;14.05;;;;;;;;;;5059498;28;20031;-65
2023/12/13 08:58:13;;;;;;;13.85;13.05;;;;;;;;;;5060497;28;20039;-65
2023/12/13 09:00:38;;;;;;;14.48;13.68;;;;;;;;;;5060230;28;20488;-66
2023/12/13 09:03:03;;;;;;;15.55;14.57;;;;;;;;;;5056236;28;20050;-66
2023/12/13 09:05:29;;;;;;;14.80;13.90;;;;;;;;;;5063130;28;20444;-64
2023/12/13 09:07:55;;;;;;;16.20;15.20;;;;;;;;;;5062081;28;20028;-64
2023/12/13 09:10:21;;;;;;;15.57;14.57;;;;;;;;;;5058113;28;20028;-65
2023/12/13 09:12:46;;;;;;;13.57;12.85;;;;;;;;;;5059926;28;20063;-64
2023/12/13 09:15:11;;;;;;;15.45;14.48;;;;;;;;;;5060304;28;20534;-65
2023/12/13 09:17:37;;;;;;;13.95;13.15;;;;;;;;;;5058095;28;20095;-66
2023/12/13 09:20:02;;;;;;;14.40;13.57;;;;;;;;;;5058372;28;20047;-65
2023/12/13 09:22:27;;;;;;;13.13;12.43;;;;;;;;;;5055582;28;20040;-68
2023/12/13 09:24:53;;;;;;;14.80;13.90;;;;;;;;;;5061191;28;20463;-66
2023/12/13 09:27:19;;;;;;;14.80;13.90;;;;;;;;;;5062255;28;20040;-63
2023/12/13 09:29:44;;;;;;;13.48;12.75;;;;;;;;;;5063150;28;20012;-62
2023/12/13 09:32:09;;;;;;;14.10;13.30;;;;;;;;;;5056168;28;20100;-66
2023/12/13 09:34:36;;;;;;;13.80;13.00;;;;;;;;;;5057300;28;20023;-67
2023/12/13 09:37:01;;;;;;;14.50;13.65;;;;;;;;;;5060338;28;20025;-65
2023/12/13 09:39:27;;;;;;;14.98;14.07;;;;;;;;;;5059094;28;20090;-64
2023/12/13 09:42:05;;;;;;;13.93;13.13;;;;;;;;;;5056895;28;20021;-66
2023/12/13 09:44:32;;;;;;;14.23;13.43;;;;;;;;;;5055139;28;20020;-68
2023/12/13 09:47:00;;;;;;;13.48;12.75;;;;;;;;;;5061907;28;20027;-65
2023/12/13 09:49:27;;;;;;;13.73;12.93;;;;;;;;;;5057916;28;20037;-65
2023/12/13 09:51:52;;;;;;;12.65;11.98;;;;;;;;;;5063097;28;20494;-66
2023/12/13 09:54:18;;;;;;;14.15;13.35;;;;;;;;;;5063425;28;20037;-65
2023/12/13 09:56:43;;;;;;;13.95;13.15;;;;;;;;;;5059744;28;20439;-65
2023/12/13 09:59:09;;;;;;;13.80;13.00;;;;;;;;;;5058843;28;20036;-66
2023/12/13 10:01:34;;;;;;;13.43;12.70;;;;;;;;;;5058238;28;20024;-66
2023/12/13 10:04:00;;;;;;;13.68;12.95;;;;;;;;;;5060950;28;20067;-65
2023/12/13 10:06:26;;;;;;;13.45;12.75;;;;;;;;;;5056360;28;20025;-67
2023/12/13 10:08:54;;;;;;;13.60;12.85;;;;;;;;;;5056574;28;20089;-66
2023/12/13 10:11:20;;;;;;;14.27;13.48;;;;;;;;;;5053939;28;20480;-65
2023/12/13 10:13:45;;;;;;;14.52;13.73;;;;;;;;;;5058134;28;20043;-64
2023/12/13 10:16:11;;;;;;;13.93;13.13;;;;;;;;;;5058303;28;20065;-64
2023/12/13 10:18:36;;;;;;;13.93;13.15;;;;;;;;;;5060237;28;20037;-66
2023/12/13 10:21:03;;;;;;;14.43;13.63;;;;;;;;;;5060753;28;20075;-65
2023/12/13 10:23:28;;;;;;;13.88;13.07;;;;;;;;;;5062379;28;20033;-66
2023/12/13 10:25:54;;;;;;;13.95;13.15;;;;;;;;;;5058094;28;20024;-66
2023/12/13 10:28:23;;;;;;;14.35;13.55;;;;;;;;;;5057322;28;20029;-66
2023/12/13 10:30:51;;;;;;;14.68;13.82;;;;;;;;;;5060689;28;20031;-65
2023/12/13 10:33:16;;;;;;;13.35;12.65;;;;;;;;;;5056967;28;20016;-65
2023/12/13 10:35:42;;;;;;;14.63;13.82;;;;;;;;;;5056206;28;20619;-63
2023/12/13 10:38:12;;;;;;;14.52;13.70;;;;;;;;;;5059855;28;20033;-63
2023/12/13 10:40:39;;;;;;;14.88;13.98;;;;;;;;;;5056081;28;20051;-62
2023/12/13 10:43:08;;;;;;;13.65;12.95;;;;;;;;;;5061821;28;20527;-63
2023/12/13 10:45:34;;;;;;;15.25;14.35;;;;;;;;;;5057586;28;20460;-65
2023/12/13 10:48:00;;;;;;;15.05;14.15;;;;;;;;;;5058239;28;20100;-64
2023/12/13 10:50:26;;;;;;;15.10;14.20;;;;;;;;;;5061541;28;20020;-64
2023/12/13 10:52:53;;;;;;;15.18;14.27;;;;;;;;;;5056903;28;20070;-64
2023/12/13 10:55:19;;;;;;;15.38;14.48;;;;;;;;;;5062316;28;20032;-63
2023/12/13 10:57:45;;;;;;;14.77;13.88;;;;;;;;;;5061901;28;20050;-66
2023/12/13 11:00:11;;;;;;;13.77;13.05;;;;;;;;;;5066535;28;20045;-66
2023/12/13 11:02:41;;;;;;;14.43;13.63;;;;;;;;;;5062559;28;20017;-68
2023/12/13 11:05:07;;;;;;;13.85;13.07;;;;;;;;;;5064500;28;20023;-67
2023/12/13 11:07:42;;;;;;;14.40;13.60;;;;;;;;;;5063806;28;20021;-66
2023/12/13 11:10:09;;;;;;;14.73;13.82;;;;;;;;;;5058192;28;20021;-66
2023/12/13 11:12:44;;;;;;;16.58;15.50;;;;;;;;;;5057779;28;20021;-68
2023/12/13 11:15:09;;;;;;;14.25;13.45;;;;;;;;;;5062854;28;20430;-66
2023/12/13 11:17:36;;;;;;;13.85;13.05;;;;;;;;;;5059378;28;20087;-68
2023/12/13 11:20:09;;;;;;;13.65;12.85;;;;;;;;;;5060237;28;20036;-66
2023/12/13 11:22:35;;;;;;;13.27;12.57;;;;;;;;;;5067061;28;20024;-65
2023/12/13 11:25:03;;;;;;;13.25;12.55;;;;;;;;;;5065284;28;20129;-67
2023/12/13 11:27:32;;;;;;;13.63;12.93;;;;;;;;;;5065327;28;20075;-68
2023/12/13 11:29:58;;;;;;;13.15;12.45;;;;;;;;;;5064921;28;20480;-67
2023/12/13 11:32:33;;;;;;;13.82;13.05;;;;;;;;;;5059524;28;20111;-65
2023/12/13 11:34:58;;;;;;;13.15;12.45;;;;;;;;;;5064868;28;20036;-68
2023/12/13 11:37:24;;;;;;;13.52;12.82;;;;;;;;;;5067107;28;20017;-66
2023/12/13 11:39:50;;;;;;;15.07;14.18;;;;;;;;;;5064780;28;20443;-67
2023/12/13 11:42:17;;;;;;;14.02;13.23;;;;;;;;;;5059786;28;20408;-65
2023/12/13 11:44:42;;;;;;;14.45;13.65;;;;;;;;;;5060111;28;20060;-65
2023/12/13 11:47:12;;;;;;;14.05;13.25;;;;;;;;;;5060309;28;20094;-65
2023/12/13 11:49:38;;;;;;;13.98;13.18;;;;;;;;;;5063686;28;20024;-67
2023/12/13 11:52:03;;;;;;;14.10;13.30;;;;;;;;;;5067090;28;20035;-64
2023/12/13 11:54:29;;;;;;;14.20;13.40;;;;;;;;;;5065199;28;20117;-66
2023/12/13 11:56:54;;;;;;;14.07;13.27;;;;;;;;;;5060233;28;20060;-67
2023/12/13 11:59:20;;;;;;;13.63;12.93;;;;;;;;;;5065536;28;20028;-67
2023/12/13 12:01:45;;;;;;;15.40;14.50;;;;;;;;;;5060971;28;20033;-66
2023/12/13 12:04:10;;;;;;;14.07;13.30;;;;;;;;;;5060642;28;20509;-67
2023/12/13 12:06:36;;;;;;;15.63;14.68;;;;;;;;;;5056569;28;20549;-66
2023/12/13 12:09:02;;;;;;;14.10;13.30;;;;;;;;;;5055456;28;20031;-67
2023/12/13 12:11:27;;;;;;;14.38;13.57;;;;;;;;;;5059635;28;20498;-66
2023/12/13 12:13:54;;;;;;;14.50;13.70;;;;;;;;;;5054885;28;20021;-63
2023/12/13 12:16:20;;;;;;;14.82;13.95;;;;;;;;;;5057993;28;20477;-65
2023/12/13 12:18:46;;;;;;;15.93;14.95;;;;;;;;;;5064308;28;20056;-64
2023/12/13 12:21:11;;;;;;;14.60;13.80;;;;;;;;;;5067633;28;20045;-65
2023/12/13 12:23:40;;;;;;;15.70;14.73;;;;;;;;;;5059622;28;20120;-66
2023/12/13 12:26:09;;;;;;;14.07;13.27;;;;;;;;;;5060343;28;20016;-66
2023/12/13 12:28:35;;;;;;;14.07;13.27;;;;;;;;;;5059867;28;20040;-66
2023/12/13 12:31:00;;;;;;;14.95;14.05;;;;;;;;;;5057738;28;20029;-65
2023/12/13 12:33:26;;;;;;;14.27;13.48;;;;;;;;;;5054974;28;20390;-66
2023/12/13 12:35:51;;;;;;;14.50;13.70;;;;;;;;;;5065917;28;20084;-65
2023/12/13 12:38:17;;;;;;;14.35;13.55;;;;;;;;;;5060678;28;20543;-66
2023/12/13 12:40:44;;;;;;;14.73;13.85;;;;;;;;;;5058030;28;20108;-65
2023/12/13 12:43:10;;;;;;;14.93;14.02;;;;;;;;;;5055157;28;20166;-64
2023/12/13 12:45:35;;;;;;;15.20;14.30;;;;;;;;;;5062046;28;20825;-66
2023/12/13 12:48:01;;;;;;;14.77;13.95;;;;;;;;;;5058552;28;20017;-66
2023/12/13 12:50:26;;;;;;;14.45;13.65;;;;;;;;;;5055560;28;20487;-68
2023/12/13 12:52:51;;;;;;;15.00;14.10;;;;;;;;;;5061792;28;20434;-67
2023/12/13 12:55:16;;;;;;;14.85;13.98;;;;;;;;;;5061540;28;20024;-69
2023/12/13 12:57:42;;;;;;;15.05;14.15;;;;;;;;;;5057104;28;20491;-67
2023/12/13 13:00:07;;;;;;;13.80;13.10;;;;;;;;;;5058301;28;20020;-69
2023/12/13 13:02:33;;;;;;;14.00;13.20;;;;;;;;;;5058083;28;20804;-66
2023/12/13 13:04:58;;;;;;;14.48;13.68;;;;;;;;;;5054054;28;20028;-65
2023/12/13 13:07:23;;;;;;;14.85;13.95;;;;;;;;;;5060099;28;20032;-67
2023/12/13 13:09:49;;;;;;;14.30;13.50;;;;;;;;;;5055682;28;20159;-65
2023/12/13 13:12:14;;;;;;;14.90;14.02;;;;;;;;;;5058358;28;20021;-66
2023/12/13 13:14:39;;;;;;;15.18;14.27;;;;;;;;;;5064008;28;20129;-67
2023/12/13 13:17:05;;;;;;;15.18;14.27;;;;;;;;;;5063150;28;20036;-68
2023/12/13 13:19:30;;;;;;;15.00;14.10;;;;;;;;;;5061801;28;20024;-72
2023/12/13 13:21:55;;;;;;;14.85;13.95;;;;;;;;;;5060631;28;20127;-66
2023/12/13 13:24:22;;;;;;;13.57;12.85;;;;;;;;;;5059856;28;20087;-64
2023/12/13 13:26:47;;;;;;;13.35;12.65;;;;;;;;;;5058647;28;20355;-66
2023/12/13 13:29:13;;;;;;;13.98;13.20;;;;;;;;;;5060562;28;20020;-66
2023/12/13 13:31:38;;;;;;;14.65;13.82;;;;;;;;;;5055695;28;20410;-64
2023/12/13 13:34:03;;;;;;;13.65;12.95;;;;;;;;;;5056906;28;20028;-67
2023/12/13 13:36:29;;;;;;;14.23;13.43;;;;;;;;;;5062351;28;20801;-68
2023/12/13 13:38:54;;;;;;;14.85;13.95;;;;;;;;;;5063314;28;20024;-66
2023/12/13 13:41:19;;;;;;;14.52;13.73;;;;;;;;;;5055441;28;20067;-65
2023/12/13 13:43:45;;;;;;;15.32;14.43;;;;;;;;;;5060515;28;20056;-66
2023/12/13 13:46:10;;;;;;;15.05;14.15;;;;;;;;;;5062337;28;20052;-67
2023/12/13 13:48:35;;;;;;;14.07;13.27;;;;;;;;;;5063624;28;20017;-69
2023/12/13 13:51:01;;;;;;;15.05;14.15;;;;;;;;;;5061798;28;20033;-68
2023/12/13 13:53:26;;;;;;;14.25;13.45;;;;;;;;;;5062644;28;20528;-67
2023/12/13 13:55:52;;;;;;;14.10;13.30;;;;;;;;;;5058888;28;20016;-67
2023/12/13 13:58:18;;;;;;;13.85;13.10;;;;;;;;;;5059057;28;20040;-67
2023/12/13 14:00:43;;;;;;;14.50;13.65;;;;;;;;;;5058746;28;20067;-68
2023/12/13 14:03:09;;;;;;;14.98;14.07;;;;;;;;;;5057774;28;20136;-68
2023/12/13 14:05:35;;;;;;;14.05;13.25;;;;;;;;;;5056849;28;20396;-68
2023/12/13 14:08:03;;;;;;;14.05;13.25;;;;;;;;;;5055481;28;20483;-71